Time;durP1;ratioP1;P1;durP2;ratioP2;P2;SDS_P1;SDS_P2;PMS_P1;PMS_P2;Temp;Humidity;BMP_temperature;BMP_pressure;BME280_temperature;BME280_humidity;BME280_pressure;Samples;Min_cycle;Max_cycle;Signal;HPM_P1;HPM_P2
2023/01/15 00:00:59;;;;;;;6.38;1.88;;;6.80;99.90;;;;;;5031156;28;20064;-70
2023/01/15 00:03:25;;;;;;;7.85;2.10;;;6.70;99.90;;;;;;5031465;28;20041;-70
2023/01/15 00:05:51;;;;;;;12.68;1.90;;;6.70;99.90;;;;;;5030807;28;20392;-70
2023/01/15 00:08:16;;;;;;;7.28;1.80;;;6.80;99.90;;;;;;5030682;28;20128;-71
2023/01/15 00:10:42;;;;;;;10.38;1.80;;;6.60;99.90;;;;;;5030645;28;20056;-70
2023/01/15 00:13:07;;;;;;;8.43;2.13;;;6.80;99.90;;;;;;5029899;28;20100;-70
2023/01/15 00:15:33;;;;;;;11.68;2.20;;;6.70;99.90;;;;;;5030715;28;20039;-70
2023/01/15 00:17:58;;;;;;;8.50;1.90;;;6.60;99.90;;;;;;5030183;28;20462;-70
2023/01/15 00:20:24;;;;;;;15.25;1.98;;;6.80;99.90;;;;;;5030482;28;20549;-70
2023/01/15 00:22:50;;;;;;;6.85;1.67;;;6.80;99.90;;;;;;5029589;28;20095;-70
2023/01/15 00:27:59;;;;;;;16.98;2.38;;;6.60;99.90;;;;;;5030438;28;20060;-70
2023/01/15 00:30:25;;;;;;;12.32;2.33;;;6.60;99.90;;;;;;5031794;28;20037;-70
2023/01/15 00:32:51;;;;;;;10.55;2.40;;;6.70;99.90;;;;;;5029880;28;20041;-70
2023/01/15 00:35:19;;;;;;;11.38;1.80;;;6.60;99.90;;;;;;5031571;28;20095;-70
2023/01/15 00:37:45;;;;;;;12.13;2.50;;;6.80;99.90;;;;;;5030591;28;20130;-70
2023/01/15 00:40:12;;;;;;;9.23;2.10;;;6.70;99.90;;;;;;5030494;28;20491;-70
2023/01/15 00:42:38;;;;;;;12.20;2.05;;;6.60;99.90;;;;;;5013344;28;20115;-70
2023/01/15 00:45:09;;;;;;;6.68;1.65;;;6.80;99.90;;;;;;5031619;28;20045;-70
2023/01/15 00:47:42;;;;;;;11.10;2.70;;;6.70;99.90;;;;;;5031460;28;20099;-70
2023/01/15 00:50:11;;;;;;;13.02;2.75;;;6.70;99.90;;;;;;5030409;28;20104;-70
2023/01/15 00:52:37;;;;;;;13.82;2.58;;;6.60;99.90;;;;;;5029287;28;20503;-70
2023/01/15 00:55:03;;;;;;;10.43;1.73;;;6.60;99.90;;;;;;5030192;28;20079;-70
2023/01/15 00:57:28;;;;;;;13.05;2.75;;;6.70;99.90;;;;;;5013950;28;20140;-70
2023/01/15 00:59:54;;;;;;;7.40;1.63;;;6.70;99.90;;;;;;5030381;28;20053;-70
2023/01/15 01:02:20;;;;;;;12.98;1.85;;;6.70;99.90;;;;;;5030866;28;20036;-71
2023/01/15 01:04:45;;;;;;;14.27;2.42;;;6.60;99.90;;;;;;5029833;28;20535;-70
2023/01/15 01:07:11;;;;;;;12.27;2.65;;;6.80;99.90;;;;;;5029945;28;20408;-71
2023/01/15 01:09:37;;;;;;;13.15;3.05;;;6.70;99.90;;;;;;5013640;28;20034;-70
2023/01/15 01:12:03;;;;;;;7.20;1.60;;;6.80;99.90;;;;;;5013784;28;20414;-70
2023/01/15 01:14:28;;;;;;;4.57;2.20;;;6.70;99.90;;;;;;5029336;28;20034;-70
2023/01/15 01:16:54;;;;;;;11.00;3.05;;;6.60;99.90;;;;;;5030062;28;20037;-70
2023/01/15 01:19:21;;;;;;;14.23;2.75;;;6.80;99.90;;;;;;5031112;28;20401;-70
2023/01/15 01:21:48;;;;;;;16.23;3.08;;;6.80;99.90;;;;;;5050218;23;20041;-74
2023/01/15 01:24:18;;;;;;;16.45;2.50;;;6.70;99.90;;;;;;5013298;28;20526;-74
2023/01/15 01:26:44;;;;;;;9.60;2.25;;;6.80;99.90;;;;;;5030023;28;20465;-74
2023/01/15 01:29:15;;;;;;;13.88;2.45;;;6.70;99.90;;;;;;5030000;28;20092;-74
2023/01/15 01:31:40;;;;;;;14.05;1.83;;;6.80;99.90;;;;;;5028197;28;20034;-74
2023/01/15 01:34:06;;;;;;;11.82;1.92;;;6.70;99.90;;;;;;5014368;28;20038;-74
2023/01/15 01:36:36;;;;;;;14.05;2.47;;;6.70;99.90;;;;;;5014055;28;20172;-74
2023/01/15 01:39:03;;;;;;;7.28;2.00;;;6.60;99.90;;;;;;5015321;28;20073;-74
2023/01/15 01:41:29;;;;;;;17.73;2.80;;;6.80;99.90;;;;;;5015161;28;20037;-74
2023/01/15 01:44:07;;;;;;;6.60;1.55;;;6.70;99.90;;;;;;5014548;28;20392;-73
2023/01/15 01:46:35;;;;;;;12.35;2.28;;;6.70;99.90;;;;;;5013921;28;20049;-74
2023/01/15 01:49:08;;;;;;;7.13;1.65;;;6.60;99.90;;;;;;5015139;28;20033;-75
2023/01/15 01:51:38;;;;;;;9.73;1.60;;;6.70;99.90;;;;;;5015088;28;20049;-73
2023/01/15 01:54:04;;;;;;;13.45;2.63;;;6.80;99.90;;;;;;5012902;28;20133;-73
2023/01/15 01:56:33;;;;;;;14.05;2.40;;;6.70;99.90;;;;;;5014729;28;20056;-74
2023/01/15 01:58:59;;;;;;;13.85;2.17;;;6.70;99.90;;;;;;5015260;28;20049;-73
2023/01/15 02:01:25;;;;;;;9.30;2.42;;;6.70;99.90;;;;;;5013590;28;20041;-73
2023/01/15 02:03:52;;;;;;;15.32;2.67;;;6.70;99.90;;;;;;5014146;28;20048;-73
2023/01/15 02:06:18;;;;;;;12.98;2.08;;;6.80;99.90;;;;;;5013468;28;20049;-72
2023/01/15 02:08:43;;;;;;;19.17;3.20;;;6.70;99.90;;;;;;5013491;28;20415;-72
2023/01/15 02:11:17;;;;;;;12.77;2.03;;;6.70;99.90;;;;;;5013324;28;20040;-72
2023/01/15 02:13:48;;;;;;;15.45;2.35;;;6.70;99.90;;;;;;5012634;28;20049;-72
2023/01/15 02:16:39;;;;;;;11.52;2.30;;;6.70;99.90;;;;;;5013323;28;20057;-72
2023/01/15 02:19:32;;;;;;;13.32;2.80;;;6.70;99.90;;;;;;5013346;28;20084;-72
2023/01/15 02:22:10;;;;;;;12.48;2.63;;;6.70;99.90;;;;;;5013429;28;20141;-72
2023/01/15 02:24:41;;;;;;;12.52;2.55;;;6.70;99.90;;;;;;4994569;28;20037;-73
2023/01/15 02:27:13;;;;;;;12.80;1.83;;;6.80;99.90;;;;;;5011290;28;20121;-73
2023/01/15 02:29:48;;;;;;;11.30;1.58;;;6.60;99.90;;;;;;5013339;28;20123;-73
2023/01/15 02:32:46;;;;;;;14.48;1.90;;;6.70;99.90;;;;;;5012711;28;20044;-72
2023/01/15 02:35:24;;;;;;;12.00;2.33;;;6.70;99.90;;;;;;5012353;28;20057;-73
2023/01/15 02:37:54;;;;;;;9.75;1.95;;;6.70;99.90;;;;;;5013201;28;20045;-73
2023/01/15 02:40:22;;;;;;;10.10;2.00;;;6.70;99.90;;;;;;5013033;28;20072;-73
2023/01/15 02:42:49;;;;;;;14.95;2.22;;;6.60;99.90;;;;;;5011607;28;20045;-74
2023/01/15 02:45:23;;;;;;;10.48;2.25;;;6.60;99.90;;;;;;5014115;28;20415;-74
2023/01/15 02:47:51;;;;;;;11.88;2.40;;;6.70;99.90;;;;;;5012728;28;20419;-73
2023/01/15 02:50:21;;;;;;;9.70;2.45;;;6.70;99.90;;;;;;5012910;28;20096;-73
2023/01/15 02:52:53;;;;;;;16.88;3.00;;;6.70;99.90;;;;;;5011772;28;20568;-75
2023/01/15 02:55:30;;;;;;;14.27;2.15;;;6.70;99.90;;;;;;5014052;28;20049;-74
2023/01/15 02:58:00;;;;;;;13.95;2.00;;;6.70;99.90;;;;;;5013944;28;20042;-74
2023/01/15 03:00:28;;;;;;;12.32;2.42;;;6.70;99.90;;;;;;5012516;28;20520;-73
2023/01/15 03:03:13;;;;;;;13.45;3.50;;;6.70;99.90;;;;;;5011555;28;20057;-74
2023/01/15 03:05:44;;;;;;;12.27;2.42;;;6.70;99.90;;;;;;5012395;28;20038;-74
2023/01/15 03:08:10;;;;;;;13.45;2.53;;;6.80;99.90;;;;;;5012324;28;20042;-74
2023/01/15 03:11:05;;;;;;;13.27;2.35;;;6.70;99.90;;;;;;5012259;28;20129;-74
2023/01/15 03:14:01;;;;;;;12.18;2.63;;;6.80;99.90;;;;;;5011517;28;20451;-74
2023/01/15 03:16:34;;;;;;;11.88;2.65;;;6.70;99.90;;;;;;5012171;28;20046;-74
2023/01/15 03:19:12;;;;;;;10.55;2.25;;;6.70;99.90;;;;;;5012400;28;20038;-74
2023/01/15 03:21:56;;;;;;;8.23;1.80;;;6.80;99.90;;;;;;5012288;28;20085;-74
2023/01/15 03:24:30;;;;;;;;;;;6.70;99.90;;;;;;5011757;28;20768;-74
2023/01/15 03:26:56;;;;;;;12.70;2.80;;;6.70;99.90;;;;;;5011959;28;19921;-74
2023/01/15 03:29:26;;;;;;;9.32;2.13;;;6.70;99.90;;;;;;5012034;28;20042;-74
2023/01/15 03:31:52;;;;;;;13.18;2.63;;;6.60;99.90;;;;;;5011804;28;20160;-73
2023/01/15 03:34:17;;;;;;;9.15;2.08;;;6.70;99.90;;;;;;5011154;28;20120;-74
2023/01/15 03:36:43;;;;;;;17.60;3.25;;;6.70;99.90;;;;;;5011682;28;20042;-73
2023/01/15 03:39:08;;;;;;;15.82;2.65;;;6.70;99.90;;;;;;5012134;28;20526;-73
2023/01/15 03:41:45;;;;;;;12.80;2.63;;;6.70;99.90;;;;;;5013057;28;20125;-73
2023/01/15 03:44:32;;;;;;;13.32;2.70;;;6.70;99.90;;;;;;5012368;28;20057;-74
2023/01/15 03:47:20;;;;;;;13.02;2.50;;;6.70;99.90;;;;;;5011621;28;20045;-73
2023/01/15 03:50:07;;;;;;;8.85;2.00;;;6.70;99.90;;;;;;5011785;28;20111;-73
2023/01/15 03:52:47;;;;;;;10.25;2.08;;;6.70;99.90;;;;;;4994279;28;20046;-73
2023/01/15 03:55:31;;;;;;;11.57;3.00;;;6.70;99.90;;;;;;5011506;28;20050;-73
2023/01/15 03:58:01;;;;;;;8.40;2.28;;;6.70;99.90;;;;;;5011459;28;20046;-73
2023/01/15 04:00:35;;;;;;;13.73;3.45;;;6.80;99.90;;;;;;5011381;28;20038;-73
2023/01/15 04:03:02;;;;;;;12.50;2.35;;;6.70;99.90;;;;;;5011884;28;20045;-73
2023/01/15 04:05:30;;;;;;;16.10;2.97;;;6.70;99.90;;;;;;5012627;28;20045;-73
2023/01/15 04:07:57;;;;;;;11.50;2.55;;;6.70;99.90;;;;;;5012387;28;20052;-73
2023/01/15 04:10:23;;;;;;;9.52;2.10;;;6.70;99.90;;;;;;5012543;28;20057;-73
2023/01/15 04:12:49;;;;;;;16.73;2.17;;;6.60;99.90;;;;;;5011805;28;20041;-74
2023/01/15 04:15:15;;;;;;;14.45;3.58;;;6.60;99.90;;;;;;5012363;28;20046;-74
2023/01/15 04:17:41;;;;;;;13.45;2.03;;;6.70;99.90;;;;;;5012463;28;20096;-74
2023/01/15 04:20:08;;;;;;;13.43;2.78;;;6.60;99.90;;;;;;5012397;28;20042;-73
2023/01/15 04:22:34;;;;;;;11.90;2.15;;;6.70;99.90;;;;;;4977644;28;20617;-73
2023/01/15 04:25:01;;;;;;;10.30;1.85;;;6.70;99.90;;;;;;5012413;28;20121;-74
2023/01/15 04:27:27;;;;;;;12.95;2.53;;;6.70;99.90;;;;;;5010923;28;20128;-73
2023/01/15 04:29:52;;;;;;;8.73;3.00;;;6.70;99.90;;;;;;5012241;28;20114;-73
2023/01/15 04:32:18;;;;;;;10.73;2.55;;;6.60;99.90;;;;;;5011664;28;20557;-74
2023/01/15 04:34:43;;;;;;;13.30;3.70;;;6.60;99.90;;;;;;5010644;28;20042;-73
2023/01/15 04:37:09;;;;;;;18.10;3.20;;;6.50;99.90;;;;;;5012019;28;20049;-73
2023/01/15 04:39:34;;;;;;;15.88;2.50;;;6.50;99.90;;;;;;5010856;28;20073;-73
2023/01/15 04:44:44;;;;;;;8.18;2.13;;;6.50;99.90;;;;;;5011949;28;20053;-73
2023/01/15 04:47:09;;;;;;;10.95;2.75;;;6.50;99.90;;;;;;5011968;28;20046;-73
2023/01/15 04:49:35;;;;;;;13.98;3.25;;;6.50;99.90;;;;;;5012260;28;20060;-73
2023/01/15 04:52:01;;;;;;;13.63;2.70;;;6.60;99.90;;;;;;5013077;28;20099;-73
2023/01/15 04:54:26;;;;;;;11.07;2.10;;;6.60;99.90;;;;;;5010026;28;20034;-73
2023/01/15 04:56:53;;;;;;;13.02;2.60;;;6.50;99.90;;;;;;5010885;28;20155;-73
2023/01/15 04:59:21;;;;;;;10.43;2.20;;;6.50;99.90;;;;;;5011985;28;20048;-74
2023/01/15 05:01:47;;;;;;;10.90;2.75;;;6.50;99.90;;;;;;4994263;28;20565;-73
2023/01/15 05:04:13;;;;;;;10.73;3.45;;;6.50;99.90;;;;;;5011150;28;20499;-73
2023/01/15 05:06:38;;;;;;;10.27;2.28;;;6.50;99.90;;;;;;5015991;28;20037;-73
2023/01/15 05:09:05;;;;;;;10.77;2.05;;;6.50;99.90;;;;;;5015745;28;20071;-74
2023/01/15 05:11:33;;;;;;;15.85;2.13;;;6.40;99.90;;;;;;5015713;28;20089;-74
2023/01/15 05:13:58;;;;;;;13.70;3.17;;;6.40;99.90;;;;;;5013803;28;20630;-74
2023/01/15 05:16:26;;;;;;;10.98;3.75;;;6.40;99.90;;;;;;5015660;28;20050;-73
2023/01/15 05:18:55;;;;;;;10.25;2.85;;;6.40;99.90;;;;;;5014281;28;20046;-73
2023/01/15 05:21:22;;;;;;;13.40;2.55;;;6.50;99.90;;;;;;5015679;28;20041;-74
2023/01/15 05:23:50;;;;;;;11.00;2.17;;;6.40;99.90;;;;;;4997233;28;20492;-74
2023/01/15 05:26:16;;;;;;;10.07;2.33;;;6.40;99.90;;;;;;5014063;28;20501;-74
2023/01/15 05:28:42;;;;;;;11.77;2.38;;;6.40;99.90;;;;;;5015534;28;20038;-74
2023/01/15 05:31:10;;;;;;;9.27;2.83;;;6.40;99.90;;;;;;5014302;28;20056;-73
2023/01/15 05:33:37;;;;;;;15.57;3.17;;;6.30;99.90;;;;;;5014549;28;20056;-73
2023/01/15 05:36:07;;;;;;;12.50;3.10;;;6.40;99.90;;;;;;5015487;28;20041;-73
2023/01/15 05:38:33;;;;;;;13.95;2.13;;;6.30;99.90;;;;;;5015263;28;20042;-73
2023/01/15 05:40:58;;;;;;;11.23;2.95;;;6.30;99.90;;;;;;5014205;28;20407;-74
2023/01/15 05:43:24;;;;;;;14.30;2.65;;;6.30;99.90;;;;;;5014304;28;20041;-74
2023/01/15 05:45:50;;;;;;;10.05;2.45;;;6.30;99.90;;;;;;5015035;28;20041;-74
2023/01/15 05:48:15;;;;;;;8.60;2.28;;;6.20;99.90;;;;;;5015188;28;20108;-74
2023/01/15 05:50:41;;;;;;;11.20;2.03;;;6.30;99.90;;;;;;5015077;28;20034;-74
2023/01/15 05:53:06;;;;;;;8.25;1.65;;;6.30;99.90;;;;;;5014393;28;20049;-73
2023/01/15 05:55:32;;;;;;;12.65;2.65;;;6.20;99.90;;;;;;5013757;28;20050;-73
2023/01/15 05:57:58;;;;;;;20.38;2.78;;;6.30;99.90;;;;;;5013584;28;20120;-74
2023/01/15 06:00:24;;;;;;;11.05;3.63;;;6.20;99.90;;;;;;5014793;28;20041;-73
2023/01/15 06:02:50;;;;;;;9.35;1.70;;;6.10;99.90;;;;;;5012942;28;20042;-73
2023/01/15 06:05:20;;;;;;;9.80;2.60;;;6.20;99.90;;;;;;5015063;28;20113;-73
2023/01/15 06:07:51;;;;;;;13.05;2.05;;;6.20;99.90;;;;;;5013441;28;20045;-73
2023/01/15 06:10:19;;;;;;;8.40;1.65;;;6.20;99.90;;;;;;5014699;28;20117;-73
2023/01/15 06:12:46;;;;;;;11.73;2.10;;;6.10;99.90;;;;;;5013712;28;20038;-74
2023/01/15 06:15:11;;;;;;;8.35;1.88;;;6.10;99.90;;;;;;5014496;28;20397;-73
2023/01/15 06:17:37;;;;;;;10.32;1.58;;;6.10;99.90;;;;;;5013670;28;20037;-74
2023/01/15 06:20:03;;;;;;;7.32;1.50;;;6.10;99.90;;;;;;5013488;28;20037;-74
2023/01/15 06:22:29;;;;;;;7.13;1.50;;;6.10;99.90;;;;;;5012265;28;20042;-74
2023/01/15 06:24:54;;;;;;;12.20;1.48;;;6.10;99.90;;;;;;5014444;28;20049;-74
2023/01/15 06:27:20;;;;;;;6.80;1.80;;;6.00;99.90;;;;;;5014178;28;20511;-73
2023/01/15 06:29:45;;;;;;;9.70;1.77;;;6.00;99.90;;;;;;5014316;28;20038;-73
2023/01/15 06:32:11;;;;;;;12.63;1.73;;;6.00;99.90;;;;;;5014249;28;20037;-73
2023/01/15 06:34:36;;;;;;;12.50;2.45;;;5.90;99.90;;;;;;5013662;28;20034;-74
2023/01/15 06:37:02;;;;;;;11.52;2.45;;;5.90;99.90;;;;;;5014390;28;20045;-73
2023/01/15 06:39:27;;;;;;;12.40;2.72;;;5.90;99.90;;;;;;5014192;28;20556;-72
2023/01/15 06:47:21;;;;;;;11.43;2.60;;;5.90;99.90;;;;;;5014114;28;20053;-73
2023/01/15 06:49:56;;;;;;;14.27;2.45;;;5.90;99.90;;;;;;4996722;28;20046;-73
2023/01/15 06:52:24;;;;;;;8.77;2.42;;;5.90;99.90;;;;;;4995288;28;20029;-74
2023/01/15 06:54:49;;;;;;;6.53;1.63;;;5.90;99.90;;;;;;5013762;28;20125;-74
2023/01/15 06:57:15;;;;;;;13.98;2.35;;;5.90;99.90;;;;;;5013944;28;20069;-74
2023/01/15 06:59:41;;;;;;;8.43;1.77;;;5.90;99.90;;;;;;5012602;28;20042;-74
2023/01/15 07:02:06;;;;;;;9.55;2.15;;;5.80;99.90;;;;;;5012687;28;20038;-73
2023/01/15 07:04:32;;;;;;;8.45;1.75;;;5.80;99.90;;;;;;5012967;28;20073;-73
2023/01/15 07:06:57;;;;;;;8.27;2.30;;;5.80;99.90;;;;;;5012336;28;20050;-74
2023/01/15 07:09:23;;;;;;;12.43;2.08;;;5.80;99.90;;;;;;5013747;28;20054;-73
2023/01/15 07:11:48;;;;;;;14.85;2.30;;;5.80;99.90;;;;;;5013641;28;20037;-73
2023/01/15 07:14:19;;;;;;;10.32;2.03;;;5.80;99.90;;;;;;5012844;28;20037;-73
2023/01/15 07:16:45;;;;;;;9.38;1.48;;;5.80;99.90;;;;;;5012345;28;20045;-73
2023/01/15 07:19:11;;;;;;;12.65;2.50;;;5.90;99.90;;;;;;5013453;28;20133;-73
2023/01/15 07:21:37;;;;;;;8.85;1.55;;;5.80;99.90;;;;;;5013116;28;20052;-74
2023/01/15 07:24:02;;;;;;;11.63;2.45;;;5.80;99.90;;;;;;5012844;28;20042;-73
2023/01/15 07:26:28;;;;;;;7.85;2.10;;;5.70;99.90;;;;;;5013306;28;20389;-73
2023/01/15 07:28:53;;;;;;;12.80;2.53;;;5.70;99.90;;;;;;5013255;28;20415;-73
2023/01/15 07:31:20;;;;;;;8.55;1.77;;;5.70;99.90;;;;;;5013157;28;20038;-73
2023/01/15 07:33:45;;;;;;;23.17;2.80;;;5.80;99.90;;;;;;5012467;28;20179;-74
2023/01/15 07:36:11;;;;;;;9.23;2.30;;;5.80;99.90;;;;;;5012973;28;20515;-74
2023/01/15 07:38:36;;;;;;;6.90;1.70;;;5.80;99.90;;;;;;5011828;28;20491;-73
2023/01/15 07:51:59;;;;;;;8.95;1.58;;;5.80;99.90;;;;;;5011539;28;20046;-73
2023/01/15 07:54:25;;;;;;;6.30;1.70;;;5.90;99.90;;;;;;5012018;28;20038;-73
2023/01/15 07:56:52;;;;;;;11.05;2.25;;;5.90;99.90;;;;;;5011722;28;20504;-73
2023/01/15 07:59:18;;;;;;;7.47;1.80;;;5.90;99.90;;;;;;5011371;28;20520;-73
2023/01/15 08:01:43;;;;;;;9.45;1.95;;;5.90;99.90;;;;;;5012723;28;20120;-73
2023/01/15 08:04:09;;;;;;;7.72;2.20;;;5.90;99.90;;;;;;4994516;28;20125;-73
2023/01/15 08:06:35;;;;;;;9.07;1.65;;;5.80;99.90;;;;;;5011228;28;20132;-73
2023/01/15 08:09:01;;;;;;;5.93;1.40;;;5.90;99.90;;;;;;5012500;28;20436;-73
2023/01/15 08:16:55;;;;;;;8.95;2.58;;;5.90;99.90;;;;;;5011021;28;20092;-74
2023/01/15 08:19:20;;;;;;;10.25;1.73;;;5.90;99.90;;;;;;5010939;28;20073;-74
2023/01/15 08:21:46;;;;;;;8.93;1.83;;;5.90;99.90;;;;;;5011249;28;20053;-74
2023/01/15 08:24:12;;;;;;;5.53;1.70;;;5.90;99.90;;;;;;4993854;28;20042;-74
2023/01/15 08:26:38;;;;;;;10.40;1.73;;;5.90;99.90;;;;;;5010984;28;20149;-73
2023/01/15 08:29:03;;;;;;;7.32;1.75;;;5.90;99.90;;;;;;5012213;28;20038;-74
2023/01/15 08:31:29;;;;;;;9.73;2.45;;;5.90;99.90;;;;;;5010883;28;20034;-73
2023/01/15 08:33:54;;;;;;;13.40;2.47;;;6.00;99.90;;;;;;5010138;28;20038;-74
2023/01/15 08:36:20;;;;;;;10.60;2.20;;;6.10;99.90;;;;;;5011029;28;20034;-73
2023/01/15 08:38:48;;;;;;;11.00;2.45;;;6.10;99.90;;;;;;5010542;28;20124;-74
2023/01/15 08:41:14;;;;;;;10.80;2.03;;;6.20;99.90;;;;;;5010475;28;20097;-73
2023/01/15 08:43:40;;;;;;;5.82;1.38;;;6.20;99.90;;;;;;5010293;28;20124;-73
2023/01/15 08:46:06;;;;;;;5.53;0.98;;;6.10;99.90;;;;;;5010873;28;20046;-73
2023/01/15 08:48:32;;;;;;;6.72;1.55;;;6.00;99.90;;;;;;4994394;28;20568;-74
2023/01/15 08:50:58;;;;;;;8.70;1.92;;;5.80;99.90;;;;;;5010714;28;20038;-74
2023/01/15 08:53:24;;;;;;;8.95;1.50;;;5.70;99.90;;;;;;5009801;28;20389;-74
2023/01/15 08:55:50;;;;;;;8.38;1.58;;;5.60;99.90;;;;;;5010710;28;20034;-75
2023/01/15 08:58:16;;;;;;;6.70;1.10;;;5.50;99.90;;;;;;5012170;28;20042;-74
2023/01/15 09:00:42;;;;;;;9.15;1.33;;;5.50;99.90;;;;;;5012347;28;20045;-74
2023/01/15 09:03:08;;;;;;;8.20;2.85;;;5.60;99.90;;;;;;5011270;28;20100;-74
2023/01/15 09:05:36;;;;;;;7.35;2.03;;;5.60;99.90;;;;;;4988775;28;20056;-73
2023/01/15 09:08:03;;;;;;;8.20;1.73;;;5.70;99.90;;;;;;4953278;28;20092;-74
2023/01/15 09:10:28;;;;;;;12.20;1.52;;;5.70;99.90;;;;;;4953873;28;20116;-75
2023/01/15 09:12:54;;;;;;;6.47;1.92;;;5.80;99.90;;;;;;4968274;28;20192;-75
2023/01/15 09:15:19;;;;;;;8.65;1.55;;;5.80;99.90;;;;;;4970432;28;20840;-78
2023/01/15 09:17:45;;;;;;;4.28;1.50;;;5.70;99.90;;;;;;4971126;28;20905;-77
2023/01/15 09:20:14;;;;;;;12.52;2.33;;;5.70;99.90;;;;;;4968141;28;20046;-78
2023/01/15 09:22:40;;;;;;;8.50;1.92;;;5.70;99.90;;;;;;4970640;28;20050;-77
2023/01/15 09:25:06;;;;;;;11.77;2.40;;;5.80;99.90;;;;;;4968217;28;20103;-78
2023/01/15 09:27:33;;;;;;;4.82;1.48;;;5.80;99.90;;;;;;4968977;28;20046;-77
2023/01/15 09:29:58;;;;;;;9.75;1.65;;;5.80;99.90;;;;;;4969893;28;20042;-77
2023/01/15 09:32:24;;;;;;;8.57;1.50;;;5.80;99.90;;;;;;4970994;28;20227;-76
2023/01/15 09:34:50;;;;;;;10.18;2.58;;;5.80;99.90;;;;;;4970048;28;20386;-77
2023/01/15 09:37:16;;;;;;;13.25;2.03;;;5.90;99.90;;;;;;4970344;28;20855;-75
2023/01/15 09:39:42;;;;;;;10.05;1.50;;;6.00;99.90;;;;;;4970294;28;20323;-74
2023/01/15 09:42:30;;;;;;;7.28;1.40;;;6.00;99.90;;;;;;4969980;28;20228;-75
2023/01/15 09:45:15;;;;;;;5.40;1.83;;;6.20;99.90;;;;;;4971285;28;20050;-77
2023/01/15 09:48:08;;;;;;;5.45;1.90;;;6.20;99.90;;;;;;4969931;28;20514;-78
2023/01/15 09:50:41;;;;;;;6.88;1.65;;;6.20;99.90;;;;;;4969921;28;20034;-77
2023/01/15 09:53:30;;;;;;;10.68;1.75;;;6.20;99.90;;;;;;4973368;28;20366;-74
2023/01/15 09:55:58;;;;;;;7.15;1.70;;;6.20;99.90;;;;;;4974616;28;20050;-76
2023/01/15 09:58:34;;;;;;;5.75;1.65;;;6.20;99.90;;;;;;4972177;28;20156;-74
2023/01/15 10:01:00;;;;;;;3.83;1.80;;;6.20;99.90;;;;;;4974103;28;20105;-74
2023/01/15 10:03:34;;;;;;;8.95;1.95;;;6.20;99.90;;;;;;4991366;28;20165;-73
2023/01/15 10:06:20;;;;;;;11.25;1.90;;;6.10;99.90;;;;;;4991106;28;20041;-75
2023/01/15 10:08:47;;;;;;;7.25;1.67;;;6.10;99.90;;;;;;4991246;28;20847;-75
2023/01/15 10:11:19;;;;;;;11.80;1.80;;;6.10;99.90;;;;;;4991921;28;20081;-75
2023/01/15 10:13:49;;;;;;;9.93;2.75;;;6.20;99.90;;;;;;4990782;28;20049;-75
2023/01/15 10:16:33;;;;;;;6.47;1.48;;;6.20;99.90;;;;;;4992582;28;20076;-75
2023/01/15 10:19:01;;;;;;;9.73;2.50;;;6.30;99.90;;;;;;4991523;28;20103;-74
2023/01/15 10:21:54;;;;;;;9.05;1.58;;;6.30;99.90;;;;;;4990861;28;20088;-75
2023/01/15 10:24:37;;;;;;;12.70;2.95;;;6.20;99.90;;;;;;4992319;28;20567;-74
2023/01/15 10:27:15;;;;;;;8.65;1.85;;;6.30;99.90;;;;;;4993552;28;20049;-74
2023/01/15 10:29:48;;;;;;;12.93;2.25;;;6.30;99.90;;;;;;4974572;28;20042;-75
2023/01/15 10:32:20;;;;;;;15.10;1.77;;;6.30;99.90;;;;;;4992365;28;20081;-74
2023/01/15 10:35:03;;;;;;;7.60;2.28;;;6.40;99.90;;;;;;4992448;28;20045;-74
2023/01/15 10:37:32;;;;;;;13.15;2.60;;;6.60;99.90;;;;;;4987632;28;20152;-74
2023/01/15 10:40:16;;;;;;;10.27;3.45;;;6.50;99.90;;;;;;4992450;28;20045;-74
2023/01/15 10:42:53;;;;;;;13.15;3.92;;;6.50;99.90;;;;;;4955878;28;20528;-77
2023/01/15 10:45:25;;;;;;;16.58;2.25;;;6.60;99.90;;;;;;4981756;28;20087;-73
2023/01/15 10:48:08;;;;;;;14.05;2.40;;;6.70;99.90;;;;;;4986386;28;20593;-76
2023/01/15 10:50:35;;;;;;;8.55;1.75;;;6.70;99.90;;;;;;4990205;28;20570;-73
2023/01/15 10:53:31;;;;;;;10.73;2.13;;;6.70;99.90;;;;;;4988718;28;20345;-73
2023/01/15 10:56:07;;;;;;;12.85;2.63;;;6.80;99.90;;;;;;4988118;28;20152;-74
2023/01/15 10:58:39;;;;;;;16.13;3.30;;;6.70;99.90;;;;;;4988604;28;20037;-74
2023/01/15 11:01:15;;;;;;;8.85;2.42;;;6.70;99.90;;;;;;4989364;28;20672;-74
2023/01/15 11:03:43;;;;;;;9.52;2.28;;;6.80;99.90;;;;;;4985776;28;20103;-75
2023/01/15 11:06:18;;;;;;;9.80;2.33;;;6.80;99.90;;;;;;4990650;28;20060;-74
2023/01/15 11:08:52;;;;;;;9.60;2.65;;;6.90;99.90;;;;;;4991922;28;20041;-73
2023/01/15 11:20:24;;;;;;;14.52;2.88;;;7.00;99.90;;;;;;4991156;28;20635;-76
2023/01/15 11:22:49;;;;;;;9.90;2.30;;;7.00;99.90;;;;;;4989892;28;20160;-74
2023/01/15 11:25:28;;;;;;;12.85;2.55;;;7.00;99.90;;;;;;4991861;28;20053;-74
2023/01/15 11:27:54;;;;;;;14.73;2.83;;;7.00;99.90;;;;;;4983687;28;20041;-74
2023/01/15 11:30:25;;;;;;;11.55;2.53;;;7.00;99.90;;;;;;4991957;28;20065;-75
2023/01/15 11:32:56;;;;;;;10.05;2.25;;;7.00;99.90;;;;;;4991925;28;20064;-74
2023/01/15 11:35:22;;;;;;;12.70;2.30;;;7.00;99.90;;;;;;4990655;28;20882;-73
2023/01/15 11:37:48;;;;;;;14.48;2.88;;;7.10;99.90;;;;;;4991478;28;20113;-75
2023/01/15 11:40:23;;;;;;;15.77;2.25;;;7.20;99.90;;;;;;4991058;28;20311;-75
2023/01/15 11:51:27;;;;;;;14.20;2.70;;;7.30;99.90;;;;;;4989021;28;20041;-75
2023/01/15 11:53:59;;;;;;;13.10;2.45;;;7.40;99.90;;;;;;4987637;28;20041;-75
2023/01/15 11:56:27;;;;;;;14.00;2.22;;;7.30;99.90;;;;;;4990700;28;20222;-74
2023/01/15 11:58:59;;;;;;;10.25;2.17;;;7.30;99.90;;;;;;4992229;28;20048;-74
2023/01/15 12:01:29;;;;;;;9.95;2.20;;;7.40;99.90;;;;;;4989021;28;20045;-75
2023/01/15 12:03:57;;;;;;;12.32;2.60;;;7.40;99.90;;;;;;4988591;28;20566;-75
2023/01/15 12:06:25;;;;;;;11.00;3.38;;;7.40;99.90;;;;;;4989627;28;20033;-74
2023/01/15 12:09:02;;;;;;;11.02;2.88;;;7.50;99.90;;;;;;4989168;28;20045;-77
2023/01/15 12:11:34;;;;;;;16.13;2.25;;;7.50;99.90;;;;;;4988291;28;20079;-74
2023/01/15 12:14:14;;;;;;;13.32;2.58;;;7.60;99.90;;;;;;4989010;28;20056;-76
2023/01/15 12:16:47;;;;;;;12.55;2.20;;;7.60;99.90;;;;;;4988905;28;20037;-74
2023/01/15 12:19:15;;;;;;;14.87;3.00;;;7.60;99.90;;;;;;4989394;28;20064;-75
2023/01/15 12:22:06;;;;;;;18.02;2.83;;;7.50;99.90;;;;;;4971392;28;20301;-74
2023/01/15 12:24:54;;;;;;;17.10;2.30;;;7.50;99.90;;;;;;4989651;28;20073;-76
2023/01/15 12:27:34;;;;;;;15.90;2.50;;;7.40;99.90;;;;;;4988880;28;20068;-74
2023/01/15 12:30:42;;;;;;;11.43;2.13;;;7.30;99.90;;;;;;4988639;28;20862;-74
2023/01/15 12:33:17;;;;;;;15.75;2.53;;;7.20;99.90;;;;;;4979100;28;20041;-75
2023/01/15 12:35:55;;;;;;;18.88;3.97;;;7.30;99.90;;;;;;4988521;28;20077;-75
2023/01/15 12:38:50;;;;;;;12.35;2.90;;;7.30;99.90;;;;;;4988370;28;20111;-74
2023/01/15 12:45:06;;;;;;;8.60;2.40;;;7.20;99.90;;;;;;4972000;28;20570;-76
2023/01/15 12:47:39;;;;;;;12.70;4.05;;;7.10;99.90;;;;;;4990785;28;20566;-77
2023/01/15 12:50:12;;;;;;;18.10;2.63;;;7.10;99.90;;;;;;4991142;28;20072;-75
2023/01/15 12:52:42;;;;;;;10.00;2.30;;;7.00;99.90;;;;;;4990363;28;20037;-73
2023/01/15 12:55:14;;;;;;;16.85;3.47;;;6.90;99.90;;;;;;4974880;28;20137;-73
2023/01/15 12:57:44;;;;;;;9.85;2.95;;;6.80;99.90;;;;;;4988207;28;20593;-73
2023/01/15 13:00:22;;;;;;;16.50;2.97;;;6.70;99.90;;;;;;4972133;28;20088;-75
2023/01/15 13:03:15;;;;;;;10.65;3.17;;;6.60;99.90;;;;;;4988100;28;20227;-73
2023/01/15 13:05:56;;;;;;;10.77;2.38;;;6.60;99.90;;;;;;4990712;28;20156;-72
2023/01/15 13:09:01;;;;;;;5.03;2.22;;;6.60;99.90;;;;;;4990018;28;20045;-73
2023/01/15 13:11:27;;;;;;;7.97;1.80;;;6.40;99.90;;;;;;4960384;28;20569;-73
2023/01/15 13:13:58;;;;;;;6.47;1.30;;;6.30;99.90;;;;;;4988474;28;20037;-73
2023/01/15 13:16:46;;;;;;;5.43;1.60;;;6.00;99.90;;;;;;4988872;28;20110;-72
2023/01/15 13:19:28;;;;;;;7.72;1.52;;;5.80;99.90;;;;;;4987485;28;20041;-72
2023/01/15 13:21:58;;;;;;;5.50;1.30;;;5.90;99.90;;;;;;5005968;23;20046;-68
2023/01/15 13:24:35;;;;;;;5.80;1.35;;;5.70;99.90;;;;;;4892611;28;20612;-70
2023/01/15 13:27:33;;;;;;;4.68;1.38;;;5.80;99.90;;;;;;4912560;28;20599;-71
2023/01/15 13:30:15;;;;;;;9.23;1.15;;;5.70;99.90;;;;;;4900253;28;20369;-70
2023/01/15 13:32:51;;;;;;;3.60;1.75;;;5.70;99.90;;;;;;4890011;28;20450;-70
2023/01/15 13:35:22;;;;;;;10.90;1.30;;;5.60;99.90;;;;;;4919966;28;20060;-72
2023/01/15 13:37:53;;;;;;;7.85;1.20;;;5.60;99.90;;;;;;4972115;28;20100;-72
2023/01/15 13:40:31;;;;;;;2.92;0.85;;;5.70;99.90;;;;;;4971369;28;20298;-71
2023/01/15 13:42:58;;;;;;;4.25;1.10;;;5.70;99.90;;;;;;4972484;28;20056;-71
2023/01/15 13:45:36;;;;;;;2.78;0.88;;;5.80;99.90;;;;;;4973474;28;20100;-71
2023/01/15 13:48:48;;;;;;;9.95;1.50;;;5.70;99.90;;;;;;4973437;28;20037;-71
2023/01/15 13:51:31;;;;;;;5.47;1.20;;;5.80;99.90;;;;;;4906800;28;20588;-71
2023/01/15 13:53:59;;;;;;;7.32;1.50;;;5.90;99.90;;;;;;4966693;28;20311;-71
2023/01/15 13:56:28;;;;;;;6.20;1.02;;;5.90;99.90;;;;;;4972421;28;20111;-71